createdAt,value
2022-10-05T00:00:39.455Z,71.91
2022-10-05T00:01:39.540Z,71.74
2022-10-05T00:02:39.484Z,72.32
2022-10-05T00:03:39.443Z,72.41
2022-10-05T00:04:39.529Z,72.35
2022-10-05T00:05:39.394Z,72.15
2022-10-05T00:06:39.380Z,72.51
2022-10-05T00:07:39.375Z,72.59
2022-10-05T00:08:39.418Z,72.57
2022-10-05T00:09:39.348Z,72.69
2022-10-05T00:10:39.332Z,72.99
2022-10-05T00:11:39.336Z,72.86
2022-10-05T00:12:39.301Z,72.71
2022-10-05T00:13:39.299Z,72.21
2022-10-05T00:14:39.286Z,72.32
2022-10-05T00:15:39.266Z,72.24
2022-10-05T00:16:39.342Z,71.88
2022-10-05T00:17:39.241Z,71.75
2022-10-05T00:18:39.252Z,71.85
2022-10-05T00:19:39.218Z,71.91
2022-10-05T00:20:39.196Z,71.78
2022-10-05T00:21:39.228Z,71.70
2022-10-05T00:22:39.170Z,71.46
2022-10-05T00:23:39.160Z,71.28
2022-10-05T00:24:39.203Z,71.42
2022-10-05T00:25:39.133Z,71.34
2022-10-05T00:26:39.119Z,71.32
2022-10-05T00:27:39.112Z,71.47
2022-10-05T00:28:39.146Z,71.29
2022-10-05T00:29:39.087Z,70.79
2022-10-05T00:30:39.122Z,71.17
2022-10-05T00:31:39.185Z,71.22
2022-10-05T00:32:39.053Z,70.65
2022-10-05T00:33:39.034Z,70.09
2022-10-05T00:34:39.063Z,70.01
2022-10-05T00:35:39.018Z,69.73
2022-10-05T00:36:38.987Z,70.25
2022-10-05T00:37:38.981Z,70.65
2022-10-05T00:38:39.006Z,70.97
2022-10-05T00:39:38.963Z,71.41
2022-10-05T00:40:38.936Z,71.52
2022-10-05T00:41:38.923Z,71.62
2022-10-05T00:42:38.940Z,71.63
2022-10-05T00:43:38.898Z,72.13
2022-10-05T00:44:38.894Z,72.09
2022-10-05T00:45:38.931Z,71.79
2022-10-05T00:46:38.853Z,72.04
2022-10-05T00:47:38.851Z,72.26
2022-10-05T00:48:38.824Z,72.44
2022-10-05T00:49:38.815Z,72.59
2022-10-05T00:50:38.837Z,72.54
2022-10-05T00:51:38.791Z,72.50
2022-10-05T00:52:38.774Z,72.55
2022-10-05T00:53:38.763Z,72.58
2022-10-05T00:54:38.749Z,72.65
2022-10-05T00:55:38.741Z,72.83
2022-10-05T00:56:38.717Z,72.67
2022-10-05T00:57:38.707Z,72.88
2022-10-05T00:58:38.691Z,72.83
2022-10-05T00:59:38.681Z,72.48
2022-10-05T01:00:38.673Z,71.92
2022-10-05T01:01:38.717Z,71.59
2022-10-05T01:02:38.709Z,71.42
2022-10-05T01:03:38.622Z,71.78
2022-10-05T01:04:38.622Z,72.06
2022-10-05T01:05:38.610Z,72.18
2022-10-05T01:06:38.593Z,72.13
2022-10-05T01:07:38.578Z,72.27
2022-10-05T01:08:38.556Z,72.44
2022-10-05T01:09:38.546Z,72.67
2022-10-05T01:10:38.584Z,73.00
2022-10-05T01:11:38.561Z,73.31
2022-10-05T01:16:25.964Z,73.16
2022-10-05T01:17:26.939Z,73.64
2022-10-05T01:18:26.931Z,73.73
2022-10-05T01:19:26.706Z,73.59
2022-10-05T01:20:26.727Z,73.55
2022-10-05T01:21:26.674Z,73.75
2022-10-05T01:22:26.757Z,73.84
2022-10-05T01:23:26.624Z,73.66
2022-10-05T01:26:27.249Z,73.27
2022-10-05T01:27:19.708Z,73.47
2022-10-05T01:29:33.623Z,73.03
2022-10-05T01:36:05.415Z,72.83
2022-10-05T01:37:06.130Z,73.14
2022-10-05T01:38:06.077Z,73.27
2022-10-05T01:39:06.669Z,72.96
2022-10-05T01:40:06.314Z,73.11
2022-10-05T01:41:06.327Z,73.08
2022-10-05T01:42:07.002Z,73.24
2022-10-05T01:43:06.225Z,73.10
2022-10-05T01:54:20.934Z,72.14
2022-10-05T01:55:22.303Z,72.75
2022-10-05T01:56:20.854Z,73.00
2022-10-05T01:57:20.881Z,72.88
2022-10-05T01:58:20.750Z,72.63
2022-10-05T01:59:20.826Z,72.65
2022-10-05T02:00:20.773Z,72.69
2022-10-05T02:01:42.694Z,72.75
2022-10-05T02:02:20.786Z,72.59
2022-10-05T02:03:20.581Z,72.75
2022-10-05T02:04:42.728Z,72.56
2022-10-05T02:05:20.761Z,72.44
2022-10-05T02:06:20.512Z,72.60
2022-10-05T02:07:20.515Z,72.57
2022-10-05T02:08:20.473Z,72.61
2022-10-05T02:09:20.450Z,72.57
2022-10-05T02:10:20.481Z,72.53
2022-10-05T02:11:20.639Z,72.80
2022-10-05T02:16:49.937Z,72.17
2022-10-05T02:17:47.580Z,72.40
2022-10-05T02:18:48.501Z,72.41
2022-10-05T02:19:55.932Z,72.48
2022-10-05T02:20:47.389Z,72.62
2022-10-05T02:21:47.231Z,72.75
2022-10-05T02:22:48.415Z,72.68
2022-10-05T02:23:47.354Z,72.46
2022-10-05T02:25:02.128Z,72.23
2022-10-05T02:25:47.319Z,72.19
2022-10-05T02:26:58.034Z,71.69
2022-10-05T02:27:48.742Z,71.99
2022-10-05T02:30:16.826Z,71.96
2022-10-05T02:31:16.864Z,72.42
2022-10-05T02:32:16.917Z,72.69
2022-10-05T02:33:17.120Z,72.62
2022-10-05T02:35:47.767Z,72.16
2022-10-05T02:40:49.312Z,71.63
2022-10-05T02:42:54.178Z,72.30
2022-10-05T02:46:09.732Z,72.34
2022-10-05T02:47:11.110Z,72.11
2022-10-05T02:48:10.472Z,72.24
2022-10-05T02:49:10.302Z,71.78
2022-10-05T02:50:10.506Z,72.00
2022-10-05T02:51:10.279Z,72.29
2022-10-05T02:52:10.139Z,72.27
2022-10-05T02:53:10.238Z,72.17
2022-10-05T02:56:14.013Z,71.92
2022-10-05T02:57:14.585Z,72.59
2022-10-05T02:58:14.938Z,72.44
2022-10-05T02:59:14.589Z,72.55
2022-10-05T03:03:07.689Z,72.62
2022-10-05T03:04:08.618Z,73.19
2022-10-05T03:08:42.323Z,73.30
2022-10-05T03:09:41.016Z,73.59
2022-10-05T03:10:41.024Z,73.86
2022-10-05T03:11:40.909Z,74.17
2022-10-05T03:12:41.046Z,74.10
2022-10-05T03:13:40.901Z,73.79
2022-10-05T03:14:40.923Z,73.87
2022-10-05T03:15:40.844Z,73.90
2022-10-05T03:16:40.774Z,73.88
2022-10-05T03:17:40.857Z,73.97
2022-10-05T03:18:40.759Z,73.99
2022-10-05T03:19:40.963Z,74.14
2022-10-05T03:20:40.882Z,74.30
2022-10-05T03:23:00.816Z,73.94
2022-10-05T03:24:01.624Z,74.27
2022-10-05T03:25:01.755Z,74.36
2022-10-05T03:26:01.558Z,74.51
2022-10-05T03:27:01.524Z,74.66
2022-10-05T03:28:01.575Z,74.60
2022-10-05T03:29:02.418Z,74.05
2022-10-05T03:30:01.658Z,74.09
2022-10-05T03:31:01.599Z,73.69
2022-10-05T03:32:01.624Z,73.56
2022-10-05T03:33:10.554Z,73.55
2022-10-05T03:34:00.464Z,73.79
2022-10-05T03:35:01.418Z,73.87
2022-10-05T03:36:02.012Z,74.16
2022-10-05T03:37:01.414Z,73.66
2022-10-05T03:38:01.408Z,73.20
2022-10-05T03:39:02.070Z,72.64
2022-10-05T03:40:01.373Z,72.59
2022-10-05T03:41:01.445Z,72.82
2022-10-05T03:42:01.226Z,72.98
2022-10-05T03:43:01.324Z,72.89
2022-10-05T03:44:05.061Z,72.89
2022-10-05T03:45:02.354Z,72.99
2022-10-05T03:46:01.431Z,73.12
2022-10-05T03:49:00.863Z,72.70
2022-10-05T03:50:00.049Z,72.67
2022-10-05T03:53:09.374Z,71.80
2022-10-05T03:54:10.129Z,72.18
2022-10-05T03:55:09.909Z,72.33
2022-10-05T03:56:10.014Z,72.42
2022-10-05T03:57:10.431Z,72.62
2022-10-05T03:58:10.021Z,72.76
2022-10-05T03:59:09.988Z,72.85
2022-10-05T04:04:52.613Z,72.49
2022-10-05T04:05:53.489Z,72.87
2022-10-05T04:06:53.262Z,72.70
2022-10-05T04:07:53.292Z,72.74
2022-10-05T04:11:27.080Z,72.10
2022-10-05T04:12:27.919Z,72.46
2022-10-05T04:13:27.745Z,72.36
2022-10-05T04:14:29.213Z,72.45
2022-10-05T04:15:27.642Z,72.24
2022-10-05T04:16:29.264Z,72.36
2022-10-05T04:17:27.745Z,72.44
2022-10-05T04:22:19.876Z,71.88
2022-10-05T04:23:20.782Z,72.28
2022-10-05T04:24:20.506Z,72.50
2022-10-05T04:25:20.637Z,73.00
2022-10-05T04:26:20.655Z,72.64
2022-10-05T04:27:20.709Z,72.52
2022-10-05T04:28:28.326Z,72.60
2022-10-05T04:29:20.639Z,72.65
2022-10-05T04:30:38.291Z,72.68
2022-10-05T04:31:20.777Z,72.97
2022-10-05T04:32:20.700Z,73.18
2022-10-05T04:33:21.558Z,73.12
2022-10-05T04:34:19.909Z,73.16
2022-10-05T04:35:20.740Z,73.33
2022-10-05T04:36:20.499Z,73.20
2022-10-05T04:37:20.432Z,73.00
2022-10-05T04:38:20.541Z,73.14
2022-10-05T04:39:20.473Z,73.26
2022-10-05T04:40:20.471Z,73.18
2022-10-05T04:41:20.253Z,72.87
2022-10-05T04:42:28.269Z,72.93
2022-10-05T04:43:20.201Z,72.86
2022-10-05T04:44:20.347Z,72.89
2022-10-05T04:45:20.401Z,73.08
2022-10-05T04:46:30.612Z,73.17
2022-10-05T04:47:20.136Z,72.97
2022-10-05T04:48:20.104Z,72.97
2022-10-05T04:49:20.088Z,73.07
2022-10-05T04:50:20.069Z,72.83
2022-10-05T04:51:20.061Z,72.52
2022-10-05T04:52:20.066Z,72.37
2022-10-05T04:53:20.031Z,72.48
2022-10-05T04:54:20.030Z,72.62
2022-10-05T04:55:20.002Z,72.50
2022-10-05T04:56:19.989Z,72.67
2022-10-05T04:57:20.015Z,72.65
2022-10-05T04:58:19.962Z,72.59
2022-10-05T04:59:19.952Z,72.72
2022-10-05T05:00:19.946Z,72.58
2022-10-05T05:01:19.976Z,72.49
2022-10-05T05:02:19.914Z,72.65
2022-10-05T05:03:19.966Z,72.51
2022-10-05T05:04:19.885Z,72.71
2022-10-05T05:05:19.869Z,72.63
2022-10-05T05:06:19.864Z,72.53
2022-10-05T05:07:19.854Z,72.26
2022-10-05T05:08:19.835Z,72.14
2022-10-05T05:09:19.846Z,72.11
2022-10-05T05:10:19.799Z,72.01
2022-10-05T05:11:23.781Z,72.08
2022-10-05T05:12:19.778Z,72.40
2022-10-05T05:13:19.768Z,72.13
2022-10-05T05:14:19.750Z,72.06
2022-10-05T05:15:19.757Z,71.95
2022-10-05T05:16:19.774Z,72.08
2022-10-05T05:17:19.734Z,72.32
2022-10-05T05:18:19.704Z,72.25
2022-10-05T05:19:19.712Z,72.11
2022-10-05T05:20:19.676Z,71.82
2022-10-05T05:21:19.679Z,72.11
2022-10-05T05:22:19.672Z,71.67
2022-10-05T05:23:19.661Z,71.74
2022-10-05T05:24:19.634Z,71.37
2022-10-05T05:25:19.627Z,71.27
2022-10-05T05:26:19.619Z,71.34
2022-10-05T05:27:19.597Z,71.62
2022-10-05T05:28:19.631Z,71.38
2022-10-05T05:29:19.567Z,71.06
2022-10-05T05:30:19.558Z,71.26
2022-10-05T05:31:19.722Z,71.45
2022-10-05T05:32:19.539Z,71.41
2022-10-05T05:33:19.548Z,71.50
2022-10-05T05:34:19.511Z,71.60
2022-10-05T05:35:19.504Z,71.40
2022-10-05T05:36:23.079Z,71.47
2022-10-05T05:37:19.469Z,71.40
2022-10-05T05:38:19.481Z,71.17
2022-10-05T05:39:19.448Z,70.90
2022-10-05T05:40:36.434Z,70.92
2022-10-05T05:41:37.429Z,71.00
2022-10-05T05:42:37.416Z,70.83
2022-10-05T05:43:37.409Z,70.63
2022-10-05T05:44:38.956Z,70.71
2022-10-05T05:45:37.376Z,70.79
2022-10-05T05:46:58.728Z,70.60
2022-10-05T05:47:37.449Z,70.56
2022-10-05T05:48:37.339Z,70.54
2022-10-05T05:49:37.332Z,70.36
2022-10-05T05:50:37.321Z,70.01
2022-10-05T05:51:37.308Z,70.09
2022-10-05T05:52:37.303Z,70.12
2022-10-05T05:53:37.277Z,70.15
2022-10-05T05:54:37.266Z,70.04
2022-10-05T05:55:37.258Z,69.82
2022-10-05T05:56:37.239Z,69.72
2022-10-05T05:57:37.280Z,69.30
2022-10-05T05:58:37.217Z,69.25
2022-10-05T05:59:37.213Z,69.52
2022-10-05T06:00:37.206Z,69.27
2022-10-05T06:01:40.707Z,68.95
2022-10-05T06:02:37.297Z,68.56
2022-10-05T06:03:37.162Z,68.67
2022-10-05T06:04:37.143Z,68.87
2022-10-05T06:05:37.140Z,68.77
2022-10-05T06:06:37.133Z,68.66
2022-10-05T06:07:37.114Z,68.03
2022-10-05T06:08:37.094Z,68.35
2022-10-05T06:09:37.075Z,68.04
2022-10-05T06:10:37.079Z,67.71
2022-10-05T06:11:37.053Z,68.22
2022-10-05T06:12:37.060Z,68.34
2022-10-05T06:13:37.050Z,67.61
2022-10-05T06:14:37.019Z,67.68
2022-10-05T06:15:37.028Z,68.16
2022-10-05T06:16:37.127Z,68.56
2022-10-05T06:17:36.978Z,68.04
2022-10-05T06:18:36.981Z,67.96
2022-10-05T06:19:36.966Z,67.77
2022-10-05T06:20:36.950Z,67.14
2022-10-05T06:21:36.945Z,67.12
2022-10-05T06:22:36.920Z,67.60
2022-10-05T06:23:36.906Z,69.53
2022-10-05T06:24:36.961Z,68.31
2022-10-05T06:25:36.890Z,66.59
2022-10-05T06:26:36.891Z,66.14
2022-10-05T06:27:36.875Z,65.93
2022-10-05T06:28:36.923Z,65.98
2022-10-05T06:29:36.839Z,65.73
2022-10-05T06:30:36.824Z,65.91
2022-10-05T06:31:36.888Z,66.12
2022-10-05T06:32:36.808Z,66.13
2022-10-05T06:33:36.799Z,66.21
2022-10-05T06:34:36.775Z,66.09
2022-10-05T06:35:36.761Z,66.39
2022-10-05T06:36:36.762Z,65.99
2022-10-05T06:37:36.737Z,65.70
2022-10-05T06:38:36.734Z,65.41
2022-10-05T06:39:36.752Z,65.59
2022-10-05T06:40:36.715Z,65.80
2022-10-05T06:41:36.691Z,65.79
2022-10-05T06:42:36.679Z,65.24
2022-10-05T06:43:36.659Z,65.17
2022-10-05T06:44:36.674Z,65.08
2022-10-05T06:45:36.692Z,65.05
2022-10-05T06:46:36.627Z,64.91
2022-10-05T06:47:36.633Z,64.58
2022-10-05T06:48:36.592Z,64.50
2022-10-05T06:49:36.588Z,64.24
2022-10-05T06:50:36.584Z,64.22
2022-10-05T06:51:36.578Z,64.29
2022-10-05T06:52:36.561Z,63.73
2022-10-05T06:53:36.533Z,63.62
2022-10-05T06:54:36.519Z,63.59
2022-10-05T06:55:36.501Z,63.58
2022-10-05T06:56:36.507Z,63.28
2022-10-05T06:57:36.486Z,63.03
2022-10-05T06:58:36.470Z,62.92
2022-10-05T06:59:36.453Z,62.94
2022-10-05T07:00:36.450Z,62.99
2022-10-05T07:01:36.440Z,62.92
2022-10-05T07:02:36.480Z,62.85
2022-10-05T07:03:36.405Z,63.05
2022-10-05T07:04:37.225Z,63.54
2022-10-05T07:05:36.375Z,62.81
2022-10-05T07:06:36.375Z,63.00
2022-10-05T07:07:36.354Z,63.17
2022-10-05T07:08:36.327Z,63.47
2022-10-05T07:09:36.317Z,63.44
2022-10-05T07:10:36.307Z,63.14
2022-10-05T07:11:36.287Z,63.21
2022-10-05T07:12:36.286Z,63.22
2022-10-05T07:13:36.261Z,63.21
2022-10-05T07:14:36.263Z,63.23
2022-10-05T07:15:36.260Z,63.36
2022-10-05T07:16:36.300Z,63.77
2022-10-05T07:17:36.220Z,63.60
2022-10-05T07:18:36.231Z,63.32
2022-10-05T07:19:36.182Z,62.92
2022-10-05T07:20:36.169Z,63.05
2022-10-05T07:21:36.154Z,63.51
2022-10-05T07:22:36.160Z,62.95
2022-10-05T07:23:36.139Z,62.79
2022-10-05T07:24:36.127Z,62.86
2022-10-05T07:25:36.104Z,62.94
2022-10-05T07:26:36.095Z,62.96
2022-10-05T07:27:36.094Z,62.25
2022-10-05T07:28:36.198Z,62.10
2022-10-05T07:29:36.046Z,62.30
2022-10-05T07:30:36.113Z,62.07
2022-10-05T07:31:36.033Z,61.88
2022-10-05T07:32:36.024Z,61.92
2022-10-05T07:33:36.006Z,61.51
2022-10-05T07:34:35.991Z,61.39
2022-10-05T07:35:35.972Z,61.46
2022-10-05T07:36:35.963Z,61.34
2022-10-05T07:37:35.945Z,61.19
2022-10-05T07:38:35.949Z,61.09
2022-10-05T07:39:58.294Z,61.23
2022-10-05T07:40:35.919Z,61.69
2022-10-05T07:41:35.942Z,61.30
2022-10-05T07:42:41.751Z,61.35
2022-10-05T07:44:00.465Z,61.18
2022-10-05T07:44:35.869Z,60.92
2022-10-05T07:45:35.898Z,61.18
2022-10-05T07:46:35.842Z,61.30
2022-10-05T07:47:35.820Z,61.68
2022-10-05T07:48:35.827Z,61.62
2022-10-05T07:49:35.859Z,61.23
2022-10-05T07:50:35.793Z,60.11
2022-10-05T07:51:35.787Z,60.38
2022-10-05T07:52:35.774Z,60.18
2022-10-05T07:53:35.749Z,60.13
2022-10-05T07:54:35.732Z,60.31
2022-10-05T07:55:35.751Z,60.52
2022-10-05T07:56:35.712Z,59.93
2022-10-05T07:57:35.690Z,59.95
2022-10-05T07:58:35.709Z,60.23
2022-10-05T07:59:35.687Z,60.23
2022-10-05T08:00:35.654Z,60.00
2022-10-05T08:01:35.705Z,60.16
2022-10-05T08:02:35.697Z,60.26
2022-10-05T08:03:35.639Z,60.21
2022-10-05T08:04:40.741Z,59.03
2022-10-05T08:05:35.589Z,59.18
2022-10-05T08:06:35.576Z,58.81
2022-10-05T08:07:35.574Z,58.77
2022-10-05T08:08:35.549Z,58.82
2022-10-05T08:09:35.543Z,58.33
2022-10-05T08:10:35.514Z,58.43
2022-10-05T08:11:35.520Z,58.04
2022-10-05T08:12:35.486Z,58.50
2022-10-05T08:13:35.493Z,58.92
2022-10-05T08:14:35.467Z,58.58
2022-10-05T08:15:35.523Z,58.78
2022-10-05T08:16:35.441Z,58.76
2022-10-05T08:17:35.409Z,58.77
2022-10-05T08:18:35.401Z,58.71
2022-10-05T08:19:35.393Z,57.97
2022-10-05T08:20:35.380Z,58.02
2022-10-05T08:21:35.361Z,58.09
2022-10-05T08:22:35.355Z,58.26
2022-10-05T08:23:35.331Z,58.37
2022-10-05T08:24:35.343Z,58.26
2022-10-05T08:25:35.299Z,58.77
2022-10-05T08:26:35.302Z,58.57
2022-10-05T08:27:35.291Z,58.15
2022-10-05T08:28:35.332Z,58.58
2022-10-05T08:29:35.264Z,58.58
2022-10-05T08:30:35.245Z,58.47
2022-10-05T08:31:35.259Z,58.57
2022-10-05T08:32:35.207Z,58.66
2022-10-05T08:33:35.191Z,58.22
2022-10-05T08:34:35.190Z,57.39
2022-10-05T08:35:35.177Z,57.60
2022-10-05T08:36:35.152Z,57.61
2022-10-05T08:37:35.196Z,57.77
2022-10-05T08:38:35.126Z,58.11
2022-10-05T08:39:35.121Z,57.90
2022-10-05T08:40:35.091Z,57.75
2022-10-05T08:41:35.099Z,57.78
2022-10-05T08:42:35.067Z,57.77
2022-10-05T08:43:35.578Z,57.79
2022-10-05T08:44:35.053Z,57.79
2022-10-05T08:45:35.024Z,58.30
2022-10-05T08:46:35.069Z,58.42
2022-10-05T08:47:35.009Z,58.07
2022-10-05T08:48:35.003Z,58.10
2022-10-05T08:49:35.449Z,58.37
2022-10-05T08:50:34.960Z,58.43
2022-10-05T08:51:34.943Z,58.83
2022-10-05T08:52:34.929Z,57.90
2022-10-05T08:53:34.915Z,57.33
2022-10-05T08:54:34.917Z,55.75
2022-10-05T08:55:34.899Z,56.19
2022-10-05T08:56:34.887Z,56.03
2022-10-05T08:57:34.853Z,56.56
2022-10-05T08:58:34.840Z,56.59
2022-10-05T08:59:34.835Z,56.69
2022-10-05T09:00:34.836Z,56.90
2022-10-05T09:01:34.913Z,56.93
2022-10-05T09:02:34.874Z,56.68
2022-10-05T09:03:34.882Z,57.16
2022-10-05T09:04:34.772Z,56.94
2022-10-05T09:05:34.754Z,56.33
2022-10-05T09:06:34.745Z,56.21
2022-10-05T09:07:35.753Z,55.86
2022-10-05T09:08:34.710Z,55.36
2022-10-05T09:09:34.694Z,54.61
2022-10-05T09:10:34.701Z,54.43
2022-10-05T09:11:34.693Z,54.87
2022-10-05T09:12:34.653Z,53.76
2022-10-05T09:13:34.722Z,54.43
2022-10-05T09:14:34.662Z,55.79
2022-10-05T09:15:34.667Z,55.15
2022-10-05T09:16:34.605Z,55.58
2022-10-05T09:17:38.561Z,55.23
2022-10-05T09:18:34.580Z,55.20
2022-10-05T09:19:34.583Z,54.98
2022-10-05T09:20:34.565Z,54.97
2022-10-05T09:21:34.541Z,54.81
2022-10-05T09:22:34.542Z,54.64
2022-10-05T09:23:34.507Z,54.25
2022-10-05T09:24:34.502Z,54.45
2022-10-05T09:25:34.503Z,54.29
2022-10-05T09:26:34.471Z,54.35
2022-10-05T09:27:34.459Z,54.13
2022-10-05T09:28:34.539Z,53.71
2022-10-05T09:29:34.431Z,53.34
2022-10-05T09:30:34.444Z,52.84
2022-10-05T09:31:34.413Z,53.13
2022-10-05T09:32:34.400Z,53.05
2022-10-05T09:33:34.386Z,53.27
2022-10-05T09:34:34.379Z,53.26
2022-10-05T09:35:34.370Z,52.52
2022-10-05T09:36:34.352Z,52.18
2022-10-05T09:37:34.334Z,52.81
2022-10-05T09:38:34.320Z,52.77
2022-10-05T09:39:34.314Z,52.51
2022-10-05T09:40:34.286Z,52.92
2022-10-05T09:41:34.279Z,53.10
2022-10-05T09:42:34.262Z,53.53
2022-10-05T09:43:34.259Z,53.26
2022-10-05T09:44:34.231Z,53.11
2022-10-05T09:45:34.226Z,53.42
2022-10-05T09:46:34.269Z,53.64
2022-10-05T09:47:34.198Z,53.49
2022-10-05T09:48:34.184Z,53.93
2022-10-05T09:49:34.162Z,53.97
2022-10-05T09:50:34.162Z,53.86
2022-10-05T09:51:34.154Z,53.68
2022-10-05T09:52:34.126Z,54.24
2022-10-05T09:53:34.117Z,53.92
2022-10-05T09:54:34.108Z,54.01
2022-10-05T09:55:34.090Z,54.19
2022-10-05T09:56:34.092Z,54.58
2022-10-05T09:57:34.054Z,54.81
2022-10-05T09:58:34.057Z,54.15
2022-10-05T09:59:34.051Z,53.97
2022-10-05T10:00:34.021Z,53.56
2022-10-05T10:01:44.687Z,53.71
2022-10-05T10:02:34.158Z,54.46
2022-10-05T10:03:34.050Z,53.80
2022-10-05T10:04:33.974Z,53.91
2022-10-05T10:05:33.957Z,53.41
2022-10-05T10:06:33.962Z,53.57
2022-10-05T10:07:33.949Z,53.41
2022-10-05T10:08:33.918Z,53.42
2022-10-05T10:09:37.876Z,53.59
2022-10-05T10:10:33.892Z,53.00
2022-10-05T10:11:33.885Z,53.48
2022-10-05T10:12:33.880Z,53.73
2022-10-05T10:13:33.861Z,53.91
2022-10-05T10:14:33.841Z,53.68
2022-10-05T10:15:33.863Z,53.78
2022-10-05T10:16:33.833Z,53.73
2022-10-05T10:17:33.815Z,53.31
2022-10-05T10:18:33.788Z,53.52
2022-10-05T10:19:33.789Z,53.51
2022-10-05T10:20:33.765Z,53.87
2022-10-05T10:21:33.768Z,53.99
2022-10-05T10:22:33.754Z,53.72
2022-10-05T10:23:33.731Z,53.49
2022-10-05T10:24:33.715Z,53.96
2022-10-05T10:25:33.715Z,53.95
2022-10-05T10:26:33.684Z,54.51
2022-10-05T10:27:33.702Z,54.21
2022-10-05T10:28:33.744Z,54.46
2022-10-05T10:29:33.651Z,54.19
2022-10-05T10:30:36.384Z,54.19
2022-10-05T10:31:33.814Z,54.12
2022-10-05T10:32:33.616Z,53.70
2022-10-05T10:33:33.601Z,54.39
2022-10-05T10:34:33.588Z,54.42
2022-10-05T10:35:33.590Z,54.36
2022-10-05T10:36:33.557Z,54.26
2022-10-05T10:37:33.563Z,53.59
2022-10-05T10:38:33.542Z,54.13
2022-10-05T10:39:33.521Z,53.74
2022-10-05T10:40:33.514Z,53.98
2022-10-05T10:41:33.498Z,54.00
2022-10-05T10:42:33.497Z,53.26
2022-10-05T10:43:33.506Z,53.57
2022-10-05T10:44:33.459Z,53.16
2022-10-05T10:45:33.452Z,53.48
2022-10-05T10:46:33.561Z,52.56
2022-10-05T10:47:33.419Z,52.71
2022-10-05T10:48:33.430Z,52.53
2022-10-05T10:49:33.389Z,52.03
2022-10-05T10:50:33.379Z,51.74
2022-10-05T10:51:33.391Z,51.88
2022-10-05T10:52:33.362Z,51.95
2022-10-05T10:53:33.344Z,51.80
2022-10-05T10:54:33.343Z,51.85
2022-10-05T10:55:33.310Z,51.87
2022-10-05T10:56:33.302Z,51.90
2022-10-05T10:57:33.289Z,51.80
2022-10-05T10:58:33.285Z,51.37
2022-10-05T10:59:33.259Z,51.60
2022-10-05T11:00:33.254Z,52.16
2022-10-05T11:01:33.329Z,51.98
2022-10-05T11:02:33.317Z,52.23
2022-10-05T11:03:33.214Z,52.24
2022-10-05T11:04:33.189Z,52.28
2022-10-05T11:05:33.192Z,52.92
2022-10-05T11:06:33.158Z,52.46
2022-10-05T11:07:33.160Z,52.62
2022-10-05T11:08:33.148Z,52.23
2022-10-05T11:09:33.119Z,51.74
2022-10-05T11:10:33.142Z,51.37
2022-10-05T11:11:33.096Z,50.97
2022-10-05T11:12:34.683Z,50.87
2022-10-05T11:13:33.078Z,50.94
2022-10-05T11:14:33.070Z,50.83
2022-10-05T11:15:33.100Z,50.90
2022-10-05T11:16:33.124Z,51.22
2022-10-05T11:17:33.015Z,50.61
2022-10-05T11:18:33.707Z,50.84
2022-10-05T11:19:40.154Z,50.81
2022-10-05T11:20:33.029Z,51.07
2022-10-05T11:21:33.947Z,51.18
2022-10-05T11:22:32.949Z,50.39
2022-10-05T11:23:38.646Z,50.54
2022-10-05T11:24:32.948Z,51.09
2022-10-05T11:25:32.923Z,50.76
2022-10-05T11:26:32.896Z,50.39
2022-10-05T11:27:32.894Z,50.15
2022-10-05T11:28:32.941Z,49.71
2022-10-05T11:29:32.879Z,50.13
2022-10-05T11:30:32.844Z,50.40
2022-10-05T11:31:32.892Z,50.38
2022-10-05T11:32:32.837Z,50.24
2022-10-05T11:33:32.817Z,50.08
2022-10-05T11:34:32.795Z,50.56
2022-10-05T11:35:32.774Z,50.89
2022-10-05T11:36:32.758Z,50.54
2022-10-05T11:37:32.749Z,51.23
2022-10-05T11:38:33.538Z,51.34
2022-10-05T11:39:32.727Z,51.71
2022-10-05T11:40:32.740Z,52.11
2022-10-05T11:41:32.718Z,52.13
2022-10-05T11:42:32.690Z,51.39
2022-10-05T11:43:32.677Z,51.60
2022-10-05T11:44:32.663Z,51.38
2022-10-05T11:45:33.215Z,51.38
2022-10-05T11:46:32.685Z,51.08
2022-10-05T11:47:32.619Z,51.07
2022-10-05T11:48:32.594Z,49.27
2022-10-05T11:49:32.591Z,49.38
2022-10-05T11:50:32.579Z,50.40
2022-10-05T11:51:32.559Z,50.59
2022-10-05T11:52:32.539Z,50.79
2022-10-05T11:53:32.527Z,51.05
2022-10-05T11:54:41.954Z,50.73
2022-10-05T11:55:32.527Z,50.38
2022-10-05T11:56:32.517Z,50.63
2022-10-05T11:57:32.513Z,50.62
2022-10-05T11:58:32.456Z,49.93
2022-10-05T11:59:32.464Z,49.48
2022-10-05T12:00:32.545Z,49.33
2022-10-05T12:01:32.423Z,48.40
2022-10-05T12:02:32.474Z,48.29
2022-10-05T12:03:32.536Z,47.89
2022-10-05T12:04:32.382Z,48.19
2022-10-05T12:05:32.411Z,48.37
2022-10-05T12:06:32.358Z,47.63
2022-10-05T12:07:32.354Z,47.72
2022-10-05T12:08:32.333Z,48.16
2022-10-05T12:09:32.319Z,48.55
2022-10-05T12:10:32.301Z,49.06
2022-10-05T12:11:32.299Z,47.63
2022-10-05T12:12:32.269Z,47.23
2022-10-05T12:13:32.272Z,47.43
2022-10-05T12:14:32.255Z,47.61
2022-10-05T12:15:32.233Z,47.34
2022-10-05T12:16:32.240Z,47.17
2022-10-05T12:17:32.228Z,46.92
2022-10-05T12:18:32.215Z,47.13
2022-10-05T12:19:32.184Z,46.94
2022-10-05T12:20:32.215Z,47.31
2022-10-05T12:21:32.171Z,46.96
2022-10-05T12:22:32.160Z,46.78
2022-10-05T12:23:32.131Z,46.81
2022-10-05T12:24:32.136Z,46.04
2022-10-05T12:25:32.116Z,45.85
2022-10-05T12:26:32.096Z,46.17
2022-10-05T12:27:32.089Z,46.54
2022-10-05T12:28:32.117Z,46.65
2022-10-05T12:29:32.106Z,46.06
2022-10-05T12:30:32.042Z,46.84
2022-10-05T12:31:32.153Z,46.42
2022-10-05T12:32:32.008Z,47.01
2022-10-05T12:33:32.026Z,46.70
2022-10-05T12:34:31.993Z,46.96
2022-10-05T12:35:47.490Z,47.30
2022-10-05T12:36:59.241Z,46.40
2022-10-05T12:37:31.965Z,46.36
2022-10-05T12:38:31.955Z,46.53
2022-10-05T12:39:31.924Z,46.70
2022-10-05T12:40:31.905Z,46.32
2022-10-05T12:41:32.206Z,46.41
2022-10-05T12:42:31.901Z,45.93
2022-10-05T12:43:31.870Z,46.07
2022-10-05T12:44:31.864Z,45.93
2022-10-05T12:45:31.880Z,45.77
2022-10-05T12:46:31.858Z,45.80
2022-10-05T12:47:31.825Z,46.23
2022-10-05T12:48:31.822Z,45.93
2022-10-05T12:49:31.792Z,46.56
2022-10-05T12:50:31.779Z,46.38
2022-10-05T12:51:31.800Z,46.52
2022-10-05T12:52:31.750Z,46.84
2022-10-05T12:53:31.747Z,45.81
2022-10-05T12:54:31.755Z,45.47
2022-10-05T12:55:31.731Z,45.73
2022-10-05T12:56:31.712Z,45.42
2022-10-05T12:57:31.787Z,45.20
2022-10-05T12:58:31.688Z,45.06
2022-10-05T12:59:31.672Z,44.74
2022-10-05T13:00:31.730Z,44.71
2022-10-05T13:01:31.658Z,44.83
2022-10-05T13:02:31.638Z,44.28
2022-10-05T13:03:31.610Z,44.99
2022-10-05T13:04:31.620Z,44.40
2022-10-05T13:05:31.710Z,44.50
2022-10-05T13:06:32.777Z,44.91
2022-10-05T13:07:31.569Z,44.90
2022-10-05T13:08:31.546Z,44.87
2022-10-05T13:09:31.561Z,45.30
2022-10-05T13:10:31.540Z,45.72
2022-10-05T13:11:31.592Z,45.59
2022-10-05T13:12:31.518Z,44.71
2022-10-05T13:13:31.475Z,45.32
2022-10-05T13:14:38.718Z,44.31
2022-10-05T13:15:31.456Z,44.48
2022-10-05T13:16:31.497Z,45.36
2022-10-05T13:17:32.069Z,45.91
2022-10-05T13:18:31.435Z,45.22
2022-10-05T13:19:31.407Z,44.99
2022-10-05T13:20:31.383Z,45.32
2022-10-05T13:21:31.401Z,46.43
2022-10-05T13:22:31.376Z,45.24
2022-10-05T13:23:31.398Z,45.22
2022-10-05T13:24:31.374Z,45.11
2022-10-05T13:25:31.326Z,45.41
2022-10-05T13:26:31.311Z,44.92
2022-10-05T13:27:31.303Z,45.74
2022-10-05T13:28:31.331Z,44.99
2022-10-05T13:29:31.269Z,44.43
2022-10-05T13:30:31.255Z,44.18
2022-10-05T13:31:31.288Z,44.24
2022-10-05T13:32:31.244Z,44.86
2022-10-05T13:33:31.229Z,44.84
2022-10-05T13:34:31.202Z,45.74
2022-10-05T13:35:31.222Z,45.69
2022-10-05T13:36:31.174Z,44.94
2022-10-05T13:37:31.177Z,44.94
2022-10-05T13:38:31.160Z,45.27
2022-10-05T13:39:31.145Z,44.63
2022-10-05T13:40:31.120Z,44.48
2022-10-05T13:41:31.153Z,44.48
2022-10-05T13:42:31.104Z,44.58
2022-10-05T13:43:31.112Z,44.15
2022-10-05T13:44:31.065Z,43.91
2022-10-05T13:45:31.148Z,43.60
2022-10-05T13:46:31.071Z,44.38
2022-10-05T13:47:31.044Z,43.81
2022-10-05T13:48:31.015Z,43.87
2022-10-05T13:49:30.999Z,44.05
2022-10-05T13:50:33.450Z,44.02
2022-10-05T13:51:30.997Z,43.73
2022-10-05T13:52:30.961Z,43.65
2022-10-05T13:53:30.959Z,43.37
2022-10-05T13:54:30.936Z,43.64
2022-10-05T13:55:30.931Z,44.58